Time;durP1;ratioP1;P1;durP2;ratioP2;P2;SDS_P1;SDS_P2;PMS_P1;PMS_P2;Temp;Humidity;BMP_temperature;BMP_pressure;BME280_temperature;BME280_humidity;BME280_pressure;Samples;Min_cycle;Max_cycle;Signal;HPM_P1;HPM_P2
2021/09/09 00:00:38;;;;;;;;;;;;;;;;;;2084630;28;20362;-55
2021/09/09 00:01:39;;;;;;;;;;;;;;;;;;2082077;28;19925;-55
2021/09/09 00:02:40;;;;;;;;;;;;;;;;;;2085970;28;19927;-55
2021/09/09 00:03:41;;;;;;;;;;;;;;;;;;2089047;28;20404;-56
2021/09/09 00:04:42;;;;;;;;;;;;;;;;;;2090306;28;20345;-55
2021/09/09 00:05:44;;;;;;;;;;;;;;;;;;2088584;28;19952;-56
2021/09/09 00:06:45;;;;;;;;;;;;;;;;;;2089863;28;20023;-55
2021/09/09 00:07:45;;;;;;;;;;;;;;;;;;2090274;28;19920;-55
2021/09/09 00:08:46;;;;;;;;;;;;;;;;;;2088996;28;19921;-55
2021/09/09 00:09:47;;;;;;;;;;;;;;;;;;2082685;28;20370;-55
2021/09/09 00:10:48;;;;;;;;;;;;;;;;;;2081953;28;19921;-56
2021/09/09 00:11:49;;;;;;;;;;;;;;;;;;2086601;28;19920;-55
2021/09/09 00:12:49;;;;;;;;;;;;;;;;;;2089194;28;20374;-55
2021/09/09 00:13:50;;;;;;;;;;;;;;;;;;2090408;28;20362;-55
2021/09/09 00:14:51;;;;;;;;;;;;;;;;;;2087918;28;19920;-56
2021/09/09 00:15:52;;;;;;;;;;;;;;;;;;2090189;28;20067;-56
2021/09/09 00:16:53;;;;;;;;;;;;;;;;;;2090350;28;19925;-56
2021/09/09 00:17:54;;;;;;;;;;;;;;;;;;2087937;28;20305;-56
2021/09/09 00:18:54;;;;;;;;;;;;;;;;;;2090337;28;19943;-56
2021/09/09 00:19:55;;;;;;;;;;;;;;;;;;2089456;28;19920;-55
2021/09/09 00:20:56;;;;;;;;;;;;;;;;;;2088165;28;19925;-55
2021/09/09 00:21:57;;;;;;;;;;;;;;;;;;2090159;28;19921;-55
2021/09/09 00:22:57;;;;;;;;;;;;;;;;;;2089785;28;20329;-55
2021/09/09 00:23:58;;;;;;;;;;;;;;;;;;2088166;28;20370;-55
2021/09/09 00:24:59;;;;;;;;;;;;;;;;;;2090283;28;19920;-56
2021/09/09 00:26:03;;;;;;;;;;;;;;;;;;2089525;28;19925;-56
2021/09/09 00:27:04;;;;;;;;;;;;;;;;;;2085608;28;20486;-55
2021/09/09 00:28:05;;;;;;;;;;;;;;;;;;2082077;28;19925;-56
2021/09/09 00:29:06;;;;;;;;;;;;;;;;;;2083727;28;20267;-55
2021/09/09 00:30:06;;;;;;;;;;;;;;;;;;2084440;28;19974;-55
2021/09/09 00:31:08;;;;;;;;;;;;;;;;;;2081801;28;19924;-55
2021/09/09 00:32:08;;;;;;;;;;;;;;;;;;2084129;28;19932;-56
2021/09/09 00:33:09;;;;;;;;;;;;;;;;;;2088622;28;19967;-55
2021/09/09 00:34:10;;;;;;;;;;;;;;;;;;2090216;28;19927;-55
2021/09/09 00:35:11;;;;;;;;;;;;;;;;;;2089036;28;20025;-55
2021/09/09 00:36:12;;;;;;;;;;;;;;;;;;2088815;28;19927;-56
2021/09/09 00:37:13;;;;;;;;;;;;;;;;;;2090166;28;19932;-55
2021/09/09 00:38:13;;;;;;;;;;;;;;;;;;2089126;28;19924;-55
2021/09/09 00:39:14;;;;;;;;;;;;;;;;;;2088646;28;19920;-55
2021/09/09 00:40:15;;;;;;;;;;;;;;;;;;2089990;28;19920;-56
2021/09/09 00:41:16;;;;;;;;;;;;;;;;;;2089090;28;20133;-56
2021/09/09 00:42:16;;;;;;;;;;;;;;;;;;2083452;28;19974;-56
2021/09/09 00:43:17;;;;;;;;;;;;;;;;;;2081955;28;20009;-56
2021/09/09 00:44:18;;;;;;;;;;;;;;;;;;2085480;28;19925;-56
2021/09/09 00:45:19;;;;;;;;;;;;;;;;;;2089406;28;19927;-56
2021/09/09 00:46:20;;;;;;;;;;;;;;;;;;2089981;28;19972;-57
2021/09/09 00:47:21;;;;;;;;;;;;;;;;;;2088830;28;19927;-56
2021/09/09 00:48:21;;;;;;;;;;;;;;;;;;2082488;28;19925;-56
2021/09/09 00:49:22;;;;;;;;;;;;;;;;;;2081738;28;19968;-55
2021/09/09 00:50:23;;;;;;;;;;;;;;;;;;2084657;28;19921;-56
2021/09/09 00:51:24;;;;;;;;;;;;;;;;;;2089808;28;19921;-56
2021/09/09 00:52:24;;;;;;;;;;;;;;;;;;2090095;28;20317;-56
2021/09/09 00:53:25;;;;;;;;;;;;;;;;;;2087687;28;20435;-56
2021/09/09 00:54:26;;;;;;;;;;;;;;;;;;2090089;28;19921;-56
2021/09/09 00:55:27;;;;;;;;;;;;;;;;;;2089824;28;19920;-57
2021/09/09 00:56:28;;;;;;;;;;;;;;;;;;2087750;28;20007;-56
2021/09/09 00:57:29;;;;;;;;;;;;;;;;;;2089948;28;19920;-56
2021/09/09 00:58:30;;;;;;;;;;;;;;;;;;2089531;28;19925;-56
2021/09/09 00:59:31;;;;;;;;;;;;;;;;;;2087553;28;19933;-56
2021/09/09 01:00:31;;;;;;;;;;;;;;;;;;2081428;28;20325;-55
2021/09/09 01:01:32;;;;;;;;;;;;;;;;;;2082201;28;19932;-56
2021/09/09 01:02:33;;;;;;;;;;;;;;;;;;2087944;28;19947;-56
2021/09/09 01:03:34;;;;;;;;;;;;;;;;;;2089944;28;19950;-56
2021/09/09 01:04:35;;;;;;;;;;;;;;;;;;2089408;28;19921;-56
2021/09/09 01:05:36;;;;;;;;;;;;;;;;;;2085989;28;20359;-56
2021/09/09 01:06:37;;;;;;;;;;;;;;;;;;2081552;28;19949;-56
2021/09/09 01:07:38;;;;;;;;;;;;;;;;;;2083258;28;19964;-56
2021/09/09 01:08:39;;;;;;;;;;;;;;;;;;2085288;28;19921;-56
2021/09/09 01:09:40;;;;;;;;;;;;;;;;;;2081789;28;19921;-57
2021/09/09 01:10:41;;;;;;;;;;;;;;;;;;2083489;28;19928;-56
2021/09/09 01:11:42;;;;;;;;;;;;;;;;;;2085095;28;20426;-57
2021/09/09 01:12:43;;;;;;;;;;;;;;;;;;2081768;28;19932;-56
2021/09/09 01:13:44;;;;;;;;;;;;;;;;;;2084283;28;19921;-57
2021/09/09 01:14:44;;;;;;;;;;;;;;;;;;2084616;28;20318;-57
2021/09/09 01:15:45;;;;;;;;;;;;;;;;;;2081522;28;20268;-56
2021/09/09 01:16:46;;;;;;;;;;;;;;;;;;2084952;28;20345;-57
2021/09/09 01:17:47;;;;;;;;;;;;;;;;;;2084045;28;20283;-56
2021/09/09 01:18:48;;;;;;;;;;;;;;;;;;2081760;28;20337;-56
2021/09/09 01:19:48;;;;;;;;;;;;;;;;;;2085211;28;19920;-56
2021/09/09 01:20:49;;;;;;;;;;;;;;;;;;2088516;28;19928;-56
2021/09/09 01:21:50;;;;;;;;;;;;;;;;;;2089781;28;19921;-56
2021/09/09 01:22:51;;;;;;;;;;;;;;;;;;2088714;28;19929;-57
2021/09/09 01:23:52;;;;;;;;;;;;;;;;;;2082971;28;20291;-56
2021/09/09 01:24:52;;;;;;;;;;;;;;;;;;2081507;28;19921;-56
2021/09/09 01:25:53;;;;;;;;;;;;;;;;;;2086217;28;19921;-56
2021/09/09 01:26:54;;;;;;;;;;;;;;;;;;2082376;28;19948;-56
2021/09/09 01:27:55;;;;;;;;;;;;;;;;;;2081676;28;20328;-56
2021/09/09 01:28:56;;;;;;;;;;;;;;;;;;2085901;28;19920;-57
2021/09/09 01:29:56;;;;;;;;;;;;;;;;;;2089721;28;19921;-56
2021/09/09 01:30:57;;;;;;;;;;;;;;;;;;2089705;28;20409;-56
2021/09/09 01:31:58;;;;;;;;;;;;;;;;;;2086916;28;20292;-57
2021/09/09 01:32:59;;;;;;;;;;;;;;;;;;2089876;28;20142;-56
2021/09/09 01:34:00;;;;;;;;;;;;;;;;;;2089905;28;20337;-56
2021/09/09 01:35:01;;;;;;;;;;;;;;;;;;2087797;28;20366;-56
2021/09/09 01:36:01;;;;;;;;;;;;;;;;;;2081555;28;19927;-46
2021/09/09 01:37:02;;;;;;;;;;;;;;;;;;2081563;28;19929;-46
2021/09/09 01:38:03;;;;;;;;;;;;;;;;;;2086221;28;19924;-46
2021/09/09 01:39:04;;;;;;;;;;;;;;;;;;2081511;28;19974;-45
2021/09/09 01:40:04;;;;;;;;;;;;;;;;;;2081882;28;20106;-46
2021/09/09 01:41:06;;;;;;;;;;;;;;;;;;2087607;28;19925;-46
2021/09/09 01:42:06;;;;;;;;;;;;;;;;;;2089876;28;19974;-45
2021/09/09 01:43:07;;;;;;;;;;;;;;;;;;2089325;28;19925;-45
2021/09/09 01:44:08;;;;;;;;;;;;;;;;;;2086376;28;19921;-46
2021/09/09 01:45:09;;;;;;;;;;;;;;;;;;2081380;28;20353;-45
2021/09/09 01:46:10;;;;;;;;;;;;;;;;;;2082779;28;19921;-45
2021/09/09 01:47:11;;;;;;;;;;;;;;;;;;2087996;28;19921;-45
2021/09/09 01:48:11;;;;;;;;;;;;;;;;;;2089725;28;19921;-47
2021/09/09 01:49:12;;;;;;;;;;;;;;;;;;2089146;28;19924;-46
2021/09/09 01:50:13;;;;;;;;;;;;;;;;;;2086682;28;20404;-46
2021/09/09 01:51:14;;;;;;;;;;;;;;;;;;2081319;28;20362;-46
2021/09/09 01:52:15;;;;;;;;;;;;;;;;;;2083688;28;20376;-45
2021/09/09 01:53:15;;;;;;;;;;;;;;;;;;2084815;28;20107;-45
2021/09/09 01:54:16;;;;;;;;;;;;;;;;;;2081399;28;19928;-45
2021/09/09 01:55:17;;;;;;;;;;;;;;;;;;2084069;28;20269;-45
2021/09/09 01:56:18;;;;;;;;;;;;;;;;;;2089370;28;20305;-46
2021/09/09 01:57:19;;;;;;;;;;;;;;;;;;2089808;28;19927;-45
2021/09/09 01:58:20;;;;;;;;;;;;;;;;;;2088025;28;19967;-45
2021/09/09 01:59:20;;;;;;;;;;;;;;;;;;2089260;28;20278;-45
2021/09/09 02:00:21;;;;;;;;;;;;;;;;;;2089665;28;19921;-45
2021/09/09 02:01:22;;;;;;;;;;;;;;;;;;2088129;28;19921;-46
2021/09/09 02:02:23;;;;;;;;;;;;;;;;;;2089539;28;19977;-45
2021/09/09 02:03:24;;;;;;;;;;;;;;;;;;2089589;28;19920;-45
2021/09/09 02:04:28;;;;;;;;;;;;;;;;;;2087420;28;20369;-46
2021/09/09 02:05:29;;;;;;;;;;;;;;;;;;2089465;28;20051;-45
2021/09/09 02:06:30;;;;;;;;;;;;;;;;;;2089084;28;19924;-46
2021/09/09 02:07:30;;;;;;;;;;;;;;;;;;2086217;28;19929;-45
2021/09/09 02:08:31;;;;;;;;;;;;;;;;;;2081505;28;19944;-46
2021/09/09 02:09:32;;;;;;;;;;;;;;;;;;2082063;28;20370;-45
2021/09/09 02:10:33;;;;;;;;;;;;;;;;;;2087440;28;20366;-46
2021/09/09 02:11:34;;;;;;;;;;;;;;;;;;2089535;28;19921;-46
2021/09/09 02:12:35;;;;;;;;;;;;;;;;;;2088978;28;19921;-45
2021/09/09 02:13:35;;;;;;;;;;;;;;;;;;2085675;28;19921;-45
2021/09/09 02:14:36;;;;;;;;;;;;;;;;;;2081262;28;19921;-46
2021/09/09 02:15:37;;;;;;;;;;;;;;;;;;2082871;28;19978;-46
2021/09/09 02:16:38;;;;;;;;;;;;;;;;;;2087750;28;19928;-45
2021/09/09 02:17:39;;;;;;;;;;;;;;;;;;2089680;28;19920;-46
2021/09/09 02:18:40;;;;;;;;;;;;;;;;;;2088750;28;20358;-46
2021/09/09 02:19:40;;;;;;;;;;;;;;;;;;2087961;28;19925;-46
2021/09/09 02:20:41;;;;;;;;;;;;;;;;;;2089486;28;19927;-46
2021/09/09 02:21:42;;;;;;;;;;;;;;;;;;2088594;28;19927;-45
2021/09/09 02:22:43;;;;;;;;;;;;;;;;;;2087100;28;19979;-45
2021/09/09 02:23:44;;;;;;;;;;;;;;;;;;2089426;28;19928;-45
2021/09/09 02:24:45;;;;;;;;;;;;;;;;;;2088625;28;20386;-46
2021/09/09 02:25:46;;;;;;;;;;;;;;;;;;2083443;28;20015;-46
2021/09/09 02:26:46;;;;;;;;;;;;;;;;;;2081210;28;19928;-45
2021/09/09 02:27:47;;;;;;;;;;;;;;;;;;2083859;28;19925;-45
2021/09/09 02:28:48;;;;;;;;;;;;;;;;;;2089396;28;19921;-45
2021/09/09 02:29:49;;;;;;;;;;;;;;;;;;2089522;28;19927;-45
2021/09/09 02:30:50;;;;;;;;;;;;;;;;;;2087868;28;19928;-46
2021/09/09 02:31:50;;;;;;;;;;;;;;;;;;2081295;28;19928;-46
2021/09/09 02:32:51;;;;;;;;;;;;;;;;;;2081201;28;20298;-46
2021/09/09 02:33:52;;;;;;;;;;;;;;;;;;2087177;28;19921;-46
2021/09/09 02:34:53;;;;;;;;;;;;;;;;;;2089414;28;20348;-46
2021/09/09 02:35:54;;;;;;;;;;;;;;;;;;2088815;28;20366;-45
2021/09/09 02:36:55;;;;;;;;;;;;;;;;;;2086730;28;19928;-46
2021/09/09 02:37:55;;;;;;;;;;;;;;;;;;2081177;28;20374;-46
2021/09/09 02:38:56;;;;;;;;;;;;;;;;;;2080906;28;20366;-46
2021/09/09 02:39:57;;;;;;;;;;;;;;;;;;2084001;28;19921;-48
2021/09/09 02:40:58;;;;;;;;;;;;;;;;;;2081176;28;19921;-47
2021/09/09 02:41:58;;;;;;;;;;;;;;;;;;2084209;28;19936;-46
2021/09/09 02:42:59;;;;;;;;;;;;;;;;;;2083801;28;20378;-46
2021/09/09 02:44:00;;;;;;;;;;;;;;;;;;2082050;28;19921;-47
2021/09/09 02:45:01;;;;;;;;;;;;;;;;;;2086034;28;19928;-46
2021/09/09 02:46:02;;;;;;;;;;;;;;;;;;2084434;28;20051;-46
2021/09/09 02:47:03;;;;;;;;;;;;;;;;;;2082689;28;20027;-45
2021/09/09 02:48:03;;;;;;;;;;;;;;;;;;2086659;28;19921;-46
2021/09/09 02:49:04;;;;;;;;;;;;;;;;;;2084040;28;19921;-46
2021/09/09 02:50:05;;;;;;;;;;;;;;;;;;2082509;28;19925;-46
2021/09/09 02:51:06;;;;;;;;;;;;;;;;;;2084659;28;19920;-46
2021/09/09 02:52:07;;;;;;;;;;;;;;;;;;2082640;28;19948;-46
2021/09/09 02:53:08;;;;;;;;;;;;;;;;;;2082142;28;20008;-47
2021/09/09 02:54:08;;;;;;;;;;;;;;;;;;2088841;28;19954;-46
2021/09/09 02:55:09;;;;;;;;;;;;;;;;;;2090674;28;20023;-45
2021/09/09 02:56:10;;;;;;;;;;;;;;;;;;2090272;28;19927;-46
2021/09/09 02:57:11;;;;;;;;;;;;;;;;;;2088044;28;19927;-46
2021/09/09 02:58:12;;;;;;;;;;;;;;;;;;2090580;28;19924;-46
2021/09/09 02:59:13;;;;;;;;;;;;;;;;;;2090340;28;19932;-46
2021/09/09 03:00:13;;;;;;;;;;;;;;;;;;2084303;28;19921;-46
2021/09/09 03:01:14;;;;;;;;;;;;;;;;;;2082421;28;19921;-46
2021/09/09 03:02:15;;;;;;;;;;;;;;;;;;2085824;28;19932;-45
2021/09/09 03:03:16;;;;;;;;;;;;;;;;;;2089485;28;20084;-46
2021/09/09 03:04:17;;;;;;;;;;;;;;;;;;2090664;28;19956;-46
2021/09/09 03:05:18;;;;;;;;;;;;;;;;;;2089640;28;20148;-46
2021/09/09 03:06:19;;;;;;;;;;;;;;;;;;2082396;28;19921;-45
2021/09/09 03:07:20;;;;;;;;;;;;;;;;;;2082592;28;19921;-48
2021/09/09 03:08:20;;;;;;;;;;;;;;;;;;2086252;28;20345;-45
2021/09/09 03:09:21;;;;;;;;;;;;;;;;;;2082504;28;19921;-46
2021/09/09 03:10:22;;;;;;;;;;;;;;;;;;2083881;28;19921;-46
2021/09/09 03:11:23;;;;;;;;;;;;;;;;;;2088951;28;19979;-46
2021/09/09 03:12:24;;;;;;;;;;;;;;;;;;2090748;28;19920;-46
2021/09/09 03:13:25;;;;;;;;;;;;;;;;;;2089817;28;19929;-46
2021/09/09 03:14:25;;;;;;;;;;;;;;;;;;2088287;28;19925;-46
2021/09/09 03:15:26;;;;;;;;;;;;;;;;;;2090516;28;19921;-46
2021/09/09 03:16:27;;;;;;;;;;;;;;;;;;2089927;28;19929;-46
2021/09/09 03:17:28;;;;;;;;;;;;;;;;;;2085347;28;19928;-46
2021/09/09 03:18:29;;;;;;;;;;;;;;;;;;2082488;28;19928;-46
2021/09/09 03:19:30;;;;;;;;;;;;;;;;;;2085261;28;19970;-46
2021/09/09 03:20:30;;;;;;;;;;;;;;;;;;2082924;28;19921;-46
2021/09/09 03:21:31;;;;;;;;;;;;;;;;;;2082455;28;20454;-45
2021/09/09 03:22:32;;;;;;;;;;;;;;;;;;2086857;28;20251;-46
2021/09/09 03:23:33;;;;;;;;;;;;;;;;;;2090451;28;19925;-45
2021/09/09 03:24:34;;;;;;;;;;;;;;;;;;2090572;28;19931;-47
2021/09/09 03:25:36;;;;;;;;;;;;;;;;;;2088008;28;19921;-46
2021/09/09 03:26:37;;;;;;;;;;;;;;;;;;2087708;28;19921;-46
2021/09/09 03:27:38;;;;;;;;;;;;;;;;;;2090601;28;19946;-45
2021/09/09 03:28:39;;;;;;;;;;;;;;;;;;2087920;28;19921;-45
2021/09/09 03:29:40;;;;;;;;;;;;;;;;;;2082426;28;19921;-47
2021/09/09 03:30:40;;;;;;;;;;;;;;;;;;2082331;28;19925;-46
2021/09/09 03:31:41;;;;;;;;;;;;;;;;;;2086981;28;19920;-46
2021/09/09 03:32:42;;;;;;;;;;;;;;;;;;2082296;28;20255;-46
2021/09/09 03:33:43;;;;;;;;;;;;;;;;;;2083074;28;19971;-46
2021/09/09 03:34:44;;;;;;;;;;;;;;;;;;2087071;28;20289;-46
2021/09/09 03:35:44;;;;;;;;;;;;;;;;;;2082126;28;19971;-46
2021/09/09 03:36:45;;;;;;;;;;;;;;;;;;2083540;28;20302;-46
2021/09/09 03:37:46;;;;;;;;;;;;;;;;;;2088726;28;19985;-46
2021/09/09 03:38:47;;;;;;;;;;;;;;;;;;2090631;28;20274;-45
2021/09/09 03:39:48;;;;;;;;;;;;;;;;;;2089928;28;19935;-46
2021/09/09 03:40:49;;;;;;;;;;;;;;;;;;2088688;28;19921;-45
2021/09/09 03:41:49;;;;;;;;;;;;;;;;;;2090478;28;19921;-46
2021/09/09 03:42:50;;;;;;;;;;;;;;;;;;2089799;28;19928;-45
2021/09/09 03:43:51;;;;;;;;;;;;;;;;;;2085710;28;19921;-46
2021/09/09 03:44:52;;;;;;;;;;;;;;;;;;2082202;28;19921;-46
2021/09/09 03:45:52;;;;;;;;;;;;;;;;;;2084854;28;19926;-46
2021/09/09 03:46:53;;;;;;;;;;;;;;;;;;2090035;28;19952;-46
2021/09/09 03:47:54;;;;;;;;;;;;;;;;;;2090552;28;19920;-46
2021/09/09 03:48:55;;;;;;;;;;;;;;;;;;2089538;28;20290;-45
2021/09/09 03:49:56;;;;;;;;;;;;;;;;;;2082597;28;19978;-46
2021/09/09 03:50:57;;;;;;;;;;;;;;;;;;2080742;28;19921;-46
2021/09/09 03:51:57;;;;;;;;;;;;;;;;;;2087892;28;19982;-46
2021/09/09 03:52:58;;;;;;;;;;;;;;;;;;2082121;28;19921;-46
2021/09/09 03:53:59;;;;;;;;;;;;;;;;;;2086052;28;20011;-46
2021/09/09 03:55:00;;;;;;;;;;;;;;;;;;2088051;28;19921;-46
2021/09/09 03:56:01;;;;;;;;;;;;;;;;;;2081954;28;20325;-46
2021/09/09 03:57:02;;;;;;;;;;;;;;;;;;2082159;28;20461;-46
2021/09/09 03:58:02;;;;;;;;;;;;;;;;;;2085850;28;20007;-45
2021/09/09 03:59:03;;;;;;;;;;;;;;;;;;2082156;28;19921;-45
2021/09/09 04:00:04;;;;;;;;;;;;;;;;;;2083821;28;19921;-46
2021/09/09 04:01:05;;;;;;;;;;;;;;;;;;2088671;28;19929;-45
2021/09/09 04:02:06;;;;;;;;;;;;;;;;;;2090419;28;19921;-46
2021/09/09 04:03:07;;;;;;;;;;;;;;;;;;2089686;28;19924;-46
2021/09/09 04:04:08;;;;;;;;;;;;;;;;;;2088826;28;19920;-46
2021/09/09 04:05:09;;;;;;;;;;;;;;;;;;2090299;28;19931;-46
2021/09/09 04:06:10;;;;;;;;;;;;;;;;;;2089416;28;19924;-46
2021/09/09 04:07:11;;;;;;;;;;;;;;;;;;2088906;28;19927;-46
2021/09/09 04:08:11;;;;;;;;;;;;;;;;;;2090462;28;19924;-45
2021/09/09 04:09:12;;;;;;;;;;;;;;;;;;2089342;28;19925;-46
2021/09/09 04:10:13;;;;;;;;;;;;;;;;;;2083000;28;19970;-46
2021/09/09 04:11:14;;;;;;;;;;;;;;;;;;2081955;28;19921;-46
2021/09/09 04:12:15;;;;;;;;;;;;;;;;;;2086485;28;19921;-47
2021/09/09 04:13:15;;;;;;;;;;;;;;;;;;2083433;28;20428;-46
2021/09/09 04:14:16;;;;;;;;;;;;;;;;;;2082010;28;19921;-46
2021/09/09 04:15:17;;;;;;;;;;;;;;;;;;2085567;28;20003;-45
2021/09/09 04:16:18;;;;;;;;;;;;;;;;;;2089012;28;19928;-46
2021/09/09 04:17:19;;;;;;;;;;;;;;;;;;2090270;28;20068;-46
2021/09/09 04:18:20;;;;;;;;;;;;;;;;;;2088994;28;19935;-46
2021/09/09 04:19:23;;;;;;;;;;;;;;;;;;2082354;28;19921;-45
2021/09/09 04:20:24;;;;;;;;;;;;;;;;;;2081905;28;20019;-46
2021/09/09 04:21:25;;;;;;;;;;;;;;;;;;2087043;28;19963;-46
2021/09/09 04:22:25;;;;;;;;;;;;;;;;;;2090092;28;19921;-46
2021/09/09 04:23:26;;;;;;;;;;;;;;;;;;2090223;28;19946;-46
2021/09/09 04:24:27;;;;;;;;;;;;;;;;;;2088038;28;19920;-45
2021/09/09 04:25:28;;;;;;;;;;;;;;;;;;2082032;28;19921;-46
2021/09/09 04:26:29;;;;;;;;;;;;;;;;;;2081868;28;19921;-46
2021/09/09 04:27:31;;;;;;;;;;;;;;;;;;2087586;28;19935;-46
2021/09/09 04:28:32;;;;;;;;;;;;;;;;;;2082026;28;20043;-45
2021/09/09 04:29:32;;;;;;;;;;;;;;;;;;2082516;28;19921;-45
2021/09/09 04:30:33;;;;;;;;;;;;;;;;;;2088115;28;19924;-46
2021/09/09 04:31:35;;;;;;;;;;;;;;;;;;2090170;28;19974;-45
2021/09/09 04:32:35;;;;;;;;;;;;;;;;;;2089692;28;19967;-46
2021/09/09 04:33:36;;;;;;;;;;;;;;;;;;2086500;28;19982;-46
2021/09/09 04:34:37;;;;;;;;;;;;;;;;;;2081927;28;19925;-46
2021/09/09 04:35:38;;;;;;;;;;;;;;;;;;2083424;28;19921;-46
2021/09/09 04:36:39;;;;;;;;;;;;;;;;;;2088309;28;19925;-45
2021/09/09 04:37:39;;;;;;;;;;;;;;;;;;2090241;28;20133;-46
2021/09/09 04:38:40;;;;;;;;;;;;;;;;;;2089307;28;19954;-46
2021/09/09 04:39:41;;;;;;;;;;;;;;;;;;2088608;28;19928;-45
2021/09/09 04:40:42;;;;;;;;;;;;;;;;;;2089955;28;19920;-45
2021/09/09 04:41:43;;;;;;;;;;;;;;;;;;2089452;28;20003;-56
2021/09/09 04:42:43;;;;;;;;;;;;;;;;;;2089702;28;19928;-57
2021/09/09 04:43:44;;;;;;;;;;;;;;;;;;2090039;28;19931;-56
2021/09/09 04:44:45;;;;;;;;;;;;;;;;;;2089033;28;19978;-57
2021/09/09 04:45:46;;;;;;;;;;;;;;;;;;2084065;28;20374;-56
2021/09/09 04:46:48;;;;;;;;;;;;;;;;;;2081797;28;19925;-57
2021/09/09 04:47:49;;;;;;;;;;;;;;;;;;2085532;28;20034;-57
2021/09/09 04:48:49;;;;;;;;;;;;;;;;;;2083653;28;19921;-57
2021/09/09 04:49:50;;;;;;;;;;;;;;;;;;2082348;28;20051;-57
2021/09/09 04:50:51;;;;;;;;;;;;;;;;;;2085960;28;20377;-56
2021/09/09 04:51:52;;;;;;;;;;;;;;;;;;2089447;28;19928;-56
2021/09/09 04:52:53;;;;;;;;;;;;;;;;;;2089967;28;19924;-56
2021/09/09 04:53:54;;;;;;;;;;;;;;;;;;2087659;28;19921;-56
2021/09/09 04:54:54;;;;;;;;;;;;;;;;;;2089791;28;19928;-57
2021/09/09 04:55:55;;;;;;;;;;;;;;;;;;2089898;28;19920;-56
2021/09/09 04:56:56;;;;;;;;;;;;;;;;;;2087670;28;19999;-56
2021/09/09 04:57:57;;;;;;;;;;;;;;;;;;2089934;28;19928;-56
2021/09/09 04:58:58;;;;;;;;;;;;;;;;;;2089886;28;20358;-56
2021/09/09 04:59:59;;;;;;;;;;;;;;;;;;2088172;28;19921;-56
2021/09/09 05:01:00;;;;;;;;;;;;;;;;;;2081585;28;20369;-56
2021/09/09 05:02:01;;;;;;;;;;;;;;;;;;2081779;28;19921;-56
2021/09/09 05:03:02;;;;;;;;;;;;;;;;;;2088555;28;19928;-57
2021/09/09 05:04:03;;;;;;;;;;;;;;;;;;2090045;28;19925;-56
2021/09/09 05:05:04;;;;;;;;;;;;;;;;;;2089475;28;20342;-57
2021/09/09 05:06:05;;;;;;;;;;;;;;;;;;2087439;28;19928;-57
2021/09/09 05:07:06;;;;;;;;;;;;;;;;;;2089490;28;19925;-57
2021/09/09 05:08:07;;;;;;;;;;;;;;;;;;2089478;28;20041;-58
2021/09/09 05:09:07;;;;;;;;;;;;;;;;;;2088075;28;19976;-57
2021/09/09 05:10:08;;;;;;;;;;;;;;;;;;2089828;28;19920;-57
2021/09/09 05:11:10;;;;;;;;;;;;;;;;;;2089236;28;19947;-57
2021/09/09 05:12:11;;;;;;;;;;;;;;;;;;2088134;28;20003;-58
2021/09/09 05:13:12;;;;;;;;;;;;;;;;;;2089998;28;19920;-57
2021/09/09 05:14:13;;;;;;;;;;;;;;;;;;2089261;28;19924;-59
2021/09/09 05:15:14;;;;;;;;;;;;;;;;;;2084574;28;19921;-57
2021/09/09 05:16:14;;;;;;;;;;;;;;;;;;2081646;28;20290;-58
2021/09/09 05:17:15;;;;;;;;;;;;;;;;;;2083886;28;19924;-59
2021/09/09 05:18:16;;;;;;;;;;;;;;;;;;2088446;28;19920;-59
2021/09/09 05:19:17;;;;;;;;;;;;;;;;;;2089841;28;19925;-59
2021/09/09 05:20:20;;;;;;;;;;;;;;;;;;2088918;28;19921;-58
2021/09/09 05:21:21;;;;;;;;;;;;;;;;;;2084127;28;20012;-58
2021/09/09 05:22:22;;;;;;;;;;;;;;;;;;2081612;28;19921;-59
2021/09/09 05:23:23;;;;;;;;;;;;;;;;;;2085243;28;19927;-58
2021/09/09 05:24:23;;;;;;;;;;;;;;;;;;2083724;28;20482;-60
2021/09/09 05:25:24;;;;;;;;;;;;;;;;;;2081402;28;19928;-59
2021/09/09 05:26:25;;;;;;;;;;;;;;;;;;2085797;28;20505;-58
2021/09/09 05:27:26;;;;;;;;;;;;;;;;;;2082957;28;19928;-59
2021/09/09 05:28:27;;;;;;;;;;;;;;;;;;2081502;28;19921;-59
2021/09/09 05:29:28;;;;;;;;;;;;;;;;;;2086203;28;19927;-59
2021/09/09 05:30:29;;;;;;;;;;;;;;;;;;2082505;28;20297;-57
2021/09/09 05:31:29;;;;;;;;;;;;;;;;;;2081581;28;20282;-57
2021/09/09 05:32:31;;;;;;;;;;;;;;;;;;2086865;28;19921;-58
2021/09/09 05:33:32;;;;;;;;;;;;;;;;;;2081748;28;20008;-59
2021/09/09 05:34:33;;;;;;;;;;;;;;;;;;2081460;28;20011;-59
2021/09/09 05:35:34;;;;;;;;;;;;;;;;;;2086486;28;19920;-58
2021/09/09 05:36:35;;;;;;;;;;;;;;;;;;2089798;28;20316;-60
2021/09/09 05:37:35;;;;;;;;;;;;;;;;;;2089716;28;19921;-59
2021/09/09 05:38:36;;;;;;;;;;;;;;;;;;2087263;28;19924;-60
2021/09/09 05:39:37;;;;;;;;;;;;;;;;;;2089694;28;19928;-59
2021/09/09 05:40:38;;;;;;;;;;;;;;;;;;2089378;28;20369;-60
2021/09/09 05:41:39;;;;;;;;;;;;;;;;;;2087683;28;19927;-59
2021/09/09 05:42:40;;;;;;;;;;;;;;;;;;2089799;28;19960;-59
2021/09/09 05:43:40;;;;;;;;;;;;;;;;;;2089219;28;19924;-60
2021/09/09 05:44:41;;;;;;;;;;;;;;;;;;2087779;28;19921;-60
2021/09/09 05:45:42;;;;;;;;;;;;;;;;;;2089700;28;19971;-59
2021/09/09 05:46:43;;;;;;;;;;;;;;;;;;2088997;28;20385;-59
2021/09/09 05:47:44;;;;;;;;;;;;;;;;;;2086983;28;19935;-60
2021/09/09 05:48:45;;;;;;;;;;;;;;;;;;2089664;28;19924;-59
2021/09/09 05:49:45;;;;;;;;;;;;;;;;;;2089181;28;19921;-58
2021/09/09 05:50:46;;;;;;;;;;;;;;;;;;2083008;28;19968;-59
2021/09/09 05:51:47;;;;;;;;;;;;;;;;;;2081561;28;19921;-60
2021/09/09 05:52:48;;;;;;;;;;;;;;;;;;2083222;28;19921;-60
2021/09/09 05:53:49;;;;;;;;;;;;;;;;;;2088254;28;19920;-59
2021/09/09 05:54:50;;;;;;;;;;;;;;;;;;2089695;28;19935;-60
2021/09/09 05:55:51;;;;;;;;;;;;;;;;;;2088937;28;19963;-59
2021/09/09 05:56:52;;;;;;;;;;;;;;;;;;2088165;28;20016;-60
2021/09/09 05:57:53;;;;;;;;;;;;;;;;;;2089641;28;19921;-59
2021/09/09 05:58:53;;;;;;;;;;;;;;;;;;2088733;28;19928;-60
2021/09/09 05:59:54;;;;;;;;;;;;;;;;;;2083894;28;20374;-60
2021/09/09 06:00:55;;;;;;;;;;;;;;;;;;2081330;28;20337;-59
2021/09/09 06:01:57;;;;;;;;;;;;;;;;;;2085066;28;19920;-59
2021/09/09 06:03:00;;;;;;;;;;;;;;;;;;2082234;28;19921;-59
2021/09/09 06:04:02;;;;;;;;;;;;;;;;;;2081355;28;20263;-60
2021/09/09 06:05:03;;;;;;;;;;;;;;;;;;2085097;28;20003;-58
2021/09/09 06:06:04;;;;;;;;;;;;;;;;;;2088338;28;19969;-59
2021/09/09 06:07:05;;;;;;;;;;;;;;;;;;2089605;28;20011;-59
2021/09/09 06:08:06;;;;;;;;;;;;;;;;;;2087468;28;19928;-59
2021/09/09 06:09:07;;;;;;;;;;;;;;;;;;2089490;28;19925;-59
2021/09/09 06:10:08;;;;;;;;;;;;;;;;;;2089544;28;19928;-59
2021/09/09 06:11:09;;;;;;;;;;;;;;;;;;2087807;28;20275;-59
2021/09/09 06:12:10;;;;;;;;;;;;;;;;;;2081446;28;19972;-60
2021/09/09 06:13:11;;;;;;;;;;;;;;;;;;2081310;28;19921;-59
2021/09/09 06:14:12;;;;;;;;;;;;;;;;;;2086805;28;20294;-59
2021/09/09 06:15:12;;;;;;;;;;;;;;;;;;2089483;28;19974;-59
2021/09/09 06:16:13;;;;;;;;;;;;;;;;;;2089417;28;19924;-60
2021/09/09 06:17:14;;;;;;;;;;;;;;;;;;2087607;28;20397;-59
2021/09/09 06:18:15;;;;;;;;;;;;;;;;;;2090914;28;19928;-59
2021/09/09 06:19:16;;;;;;;;;;;;;;;;;;2090666;28;19921;-58
2021/09/09 06:20:20;;;;;;;;;;;;;;;;;;2089075;28;19943;-59
2021/09/09 06:21:20;;;;;;;;;;;;;;;;;;2091128;28;20275;-59
2021/09/09 06:22:21;;;;;;;;;;;;;;;;;;2090495;28;20518;-57
2021/09/09 06:23:22;;;;;;;;;;;;;;;;;;2089155;28;19921;-59
2021/09/09 06:24:24;;;;;;;;;;;;;;;;;;2090924;28;19928;-59
2021/09/09 06:25:25;;;;;;;;;;;;;;;;;;2090390;28;19927;-59
2021/09/09 06:26:26;;;;;;;;;;;;;;;;;;2086627;28;20325;-59
2021/09/09 06:27:26;;;;;;;;;;;;;;;;;;2082717;28;19927;-59
2021/09/09 06:28:27;;;;;;;;;;;;;;;;;;2084827;28;19925;-57
2021/09/09 06:29:28;;;;;;;;;;;;;;;;;;2086006;28;19920;-58
2021/09/09 06:30:29;;;;;;;;;;;;;;;;;;2082779;28;19921;-59
2021/09/09 06:31:30;;;;;;;;;;;;;;;;;;2085245;28;19920;-59
2021/09/09 06:32:30;;;;;;;;;;;;;;;;;;2089592;28;20022;-59
2021/09/09 06:33:31;;;;;;;;;;;;;;;;;;2090882;28;20370;-59
2021/09/09 06:34:32;;;;;;;;;;;;;;;;;;2089918;28;20422;-57
2021/09/09 06:35:33;;;;;;;;;;;;;;;;;;2084675;28;19921;-59
2021/09/09 06:36:34;;;;;;;;;;;;;;;;;;2082674;28;19931;-48
2021/09/09 06:37:35;;;;;;;;;;;;;;;;;;2086302;28;19920;-47
2021/09/09 06:38:35;;;;;;;;;;;;;;;;;;2089887;28;19963;-47
2021/09/09 06:39:36;;;;;;;;;;;;;;;;;;2090924;28;20271;-44
2021/09/09 06:40:37;;;;;;;;;;;;;;;;;;2088922;28;19928;-47
2021/09/09 06:41:38;;;;;;;;;;;;;;;;;;2090377;28;19921;-47
2021/09/09 06:42:39;;;;;;;;;;;;;;;;;;2090554;28;19927;-47
2021/09/09 06:43:40;;;;;;;;;;;;;;;;;;2089702;28;19921;-47
2021/09/09 06:44:42;;;;;;;;;;;;;;;;;;2083089;28;19951;-47
2021/09/09 06:45:42;;;;;;;;;;;;;;;;;;2082674;28;19921;-47
2021/09/09 06:46:43;;;;;;;;;;;;;;;;;;2088144;28;19924;-47
2021/09/09 06:47:44;;;;;;;;;;;;;;;;;;2082683;28;19921;-46
2021/09/09 06:48:45;;;;;;;;;;;;;;;;;;2082617;28;20305;-48
2021/09/09 06:49:46;;;;;;;;;;;;;;;;;;2087666;28;19983;-46
2021/09/09 06:50:46;;;;;;;;;;;;;;;;;;2086076;28;20378;-46
2021/09/09 06:51:47;;;;;;;;;;;;;;;;;;2082584;28;20494;-47
2021/09/09 06:52:48;;;;;;;;;;;;;;;;;;2088361;28;19925;-47
2021/09/09 06:53:49;;;;;;;;;;;;;;;;;;2090677;28;20378;-46
2021/09/09 06:54:50;;;;;;;;;;;;;;;;;;2090473;28;19921;-47
2021/09/09 06:55:51;;;;;;;;;;;;;;;;;;2088723;28;19920;-46